Etusivu
METAR-TAF:

METAR-TAF

Lentoasemat :

Puerto Cabezas, Nicaragua

Leveyspiiri: 14-03N, Pituuspiiri: 083-22W, korkeus merenpinnasta: 20 m

Tämänhetkinen sää

Tämä raportti tehtiin 13 tuntia ja 7 minuuttia sitten, kello 23.00 UTC
Tuuli 10 kn koillisesta
Lämpötila 28°C
Kosteus 79%
Ilmanpaine 1011 hPa
Näkyvyys: 7000 m
Hajonneita pilviä 1600 ft:n korkeudessa
usvaa

METAR: MNPC 162300Z 04010KT 7000 BKN016 28/24 Q1011 HZ

Aika: 06:07 (12:07 UTC)

Sääennuste

Tämä raportti tehtiin 14 tuntia ja 17 minuuttia sitten, kello 21.50 UTC
Ennuste voimassa 17. päivästä klo 00 UTC - 17. päivään klo 24 UTC
Tuuli 8 kn idästä/koillisesta puuskistuen 20 kn:hen
Näkyvyys: 7000 m
Hajonneita pilviä 1600 ft:n korkeudessa

TAF: MNPC 162150Z 1700/1724 06008G20KT 7000 HZ/VCRA BKN016

Säähavainnot ja -ennusteet yli 4000 lentoasemalta (METAR- ja TAF-raportit).

Käytössä olevat sääasemat on merkitty karttaan keltaisilla ja punaisilla pisteillä.

Aseta hiiri pisteen päälle nähdäksesi sääaseman nimen.

Klikkaa sitten nähdäksesi säähavainnot ja -ennusteet.

Kartan vaihtaminen: klikkaa mustalla rastilla varustettuja vihreitä pisteitä, niin voit zoomata sisään; viivalla varustettua vihreää pistettä, niin voit zoomata ulos tai vihreitä nuolia, niin pääset viereisille kartoille.


METAR-TAF: